createdAt,value
2019-02-04T00:02:20.962Z,94853.25
2019-02-04T00:04:51.761Z,94860.60
2019-02-04T00:07:22.328Z,94857.17
2019-02-04T00:09:52.953Z,94871.27
2019-02-04T00:12:23.516Z,94857.36
2019-02-04T00:14:53.815Z,94869.94
2019-02-04T00:17:24.108Z,94865.89
2019-02-04T00:19:55.150Z,94867.80
2019-02-04T00:22:25.425Z,94864.48
2019-02-04T00:24:55.870Z,94863.59
2019-02-04T00:27:26.496Z,94877.48
2019-02-04T00:29:57.019Z,94868.34
2019-02-04T00:32:27.679Z,94873.97
2019-02-04T00:34:58.432Z,94883.59
2019-02-04T00:37:29.232Z,94879.76
2019-02-04T00:39:59.555Z,94889.55
2019-02-04T00:42:30.088Z,94888.44
2019-02-04T00:45:00.758Z,94899.79
2019-02-04T00:47:31.060Z,94895.03
2019-02-04T00:50:01.684Z,94598.42
2019-02-04T00:52:31.955Z,94888.02
2019-02-04T00:55:02.918Z,94892.94
2019-02-04T00:57:33.658Z,94900.81
2019-02-04T01:00:06.003Z,94897.02
2019-02-04T01:02:36.361Z,94906.67
2019-02-04T01:05:08.149Z,94909.42
2019-02-04T01:07:38.446Z,94929.57
2019-02-04T01:10:10.662Z,94924.76
2019-02-04T01:12:41.574Z,94916.21
2019-02-04T01:15:12.095Z,94913.03
2019-02-04T01:17:42.382Z,94911.28
2019-02-04T01:20:15.442Z,94900.70
2019-02-04T01:22:46.352Z,94919.14
2019-02-04T01:25:17.114Z,94890.90
2019-02-04T01:27:47.398Z,94932.66
2019-02-04T01:30:18.477Z,94915.50
2019-02-04T01:32:48.942Z,94933.45
2019-02-04T01:35:19.301Z,94926.99
2019-02-04T01:37:49.820Z,94907.17
2019-02-04T01:40:24.920Z,94924.41
2019-02-04T01:42:55.532Z,94913.56
2019-02-04T01:45:26.049Z,94919.23
2019-02-04T01:47:56.552Z,94911.81
2019-02-04T01:50:27.085Z,94924.79
2019-02-04T01:52:57.721Z,94922.20
2019-02-04T01:55:28.064Z,94929.69
2019-02-04T01:57:58.370Z,94942.02
2019-02-04T02:00:31.619Z,94921.42
2019-02-04T02:03:01.897Z,94943.50
2019-02-04T02:05:32.382Z,94936.95
2019-02-04T02:08:03.162Z,94942.78
2019-02-04T02:10:33.687Z,94948.14
2019-02-04T02:13:03.974Z,94944.30
2019-02-04T02:15:35.155Z,94954.36
2019-02-04T02:18:05.874Z,94953.26
2019-02-04T02:20:36.331Z,94962.92
2019-02-04T02:23:07.056Z,94961.02
2019-02-04T02:25:37.618Z,94963.74
2019-02-04T02:28:08.476Z,94962.90
2019-02-04T02:30:39.244Z,94957.78
2019-02-04T02:33:09.591Z,94966.44
2019-02-04T02:35:39.946Z,94979.70
2019-02-04T02:38:10.235Z,94979.14
2019-02-04T02:40:40.908Z,94973.11
2019-02-04T02:43:11.815Z,94971.45
2019-02-04T02:45:42.440Z,94973.23
2019-02-04T02:48:12.960Z,94968.90
2019-02-04T02:50:43.485Z,94977.76
2019-02-04T02:53:13.763Z,94972.03
2019-02-04T02:55:44.606Z,94972.05
2019-02-04T02:58:14.922Z,94974.14
2019-02-04T03:00:47.322Z,94980.08
2019-02-04T03:03:17.615Z,94983.49
2019-02-04T03:05:47.960Z,94976.86
2019-02-04T03:08:18.844Z,94978.69
2019-02-04T03:10:49.377Z,94977.00
2019-02-04T03:13:19.670Z,94984.50
2019-02-04T03:15:50.619Z,94993.94
2019-02-04T03:18:21.549Z,95001.40
2019-02-04T03:20:52.173Z,94991.53
2019-02-04T03:23:22.946Z,94992.66
2019-02-04T03:25:53.711Z,94991.78
2019-02-04T03:28:24.015Z,94986.08
2019-02-04T03:30:54.399Z,94993.52
2019-02-04T03:33:25.208Z,94997.51
2019-02-04T03:35:55.592Z,94991.88
2019-02-04T03:38:25.950Z,94991.06
2019-02-04T03:40:56.260Z,94987.77
2019-02-04T03:43:26.872Z,94988.32
2019-02-04T03:45:57.789Z,94981.56
2019-02-04T03:48:28.250Z,94989.34
2019-02-04T03:50:58.816Z,94992.14
2019-02-04T03:53:29.414Z,94983.28
2019-02-04T03:55:59.738Z,94984.23
2019-02-04T03:58:30.140Z,94990.00
2019-02-04T04:01:00.819Z,94985.01
2019-02-04T04:03:31.634Z,94694.84
2019-02-04T04:06:02.358Z,94982.41
2019-02-04T04:08:32.659Z,94981.06
2019-02-04T04:11:03.001Z,94988.88
2019-02-04T04:13:33.651Z,94990.10
2019-02-04T04:16:04.015Z,94982.22
2019-02-04T04:18:34.379Z,94995.63
2019-02-04T04:21:05.177Z,94992.12
2019-02-04T04:23:35.457Z,94995.59
2019-02-04T04:26:05.954Z,94992.93
2019-02-04T04:28:36.614Z,94992.87
2019-02-04T04:31:07.326Z,94994.81
2019-02-04T04:33:37.670Z,94988.88
2019-02-04T04:36:08.248Z,95000.85
2019-02-04T04:38:39.029Z,95009.61
2019-02-04T04:41:09.331Z,95018.41
2019-02-04T04:43:39.949Z,95018.00
2019-02-04T04:46:10.542Z,95021.05
2019-02-04T04:48:40.970Z,95012.66
2019-02-04T04:51:11.485Z,95014.33
2019-02-04T04:53:42.268Z,95022.45
2019-02-04T04:56:12.551Z,95017.05
2019-02-04T04:58:42.848Z,95017.07
2019-02-04T05:01:13.633Z,95017.08
2019-02-04T05:03:43.921Z,95024.80
2019-02-04T05:06:14.678Z,95031.09
2019-02-04T05:08:44.982Z,95042.98
2019-02-04T05:11:15.427Z,95040.20
2019-02-04T05:13:46.135Z,95035.26
2019-02-04T05:16:16.454Z,95044.69
2019-02-04T05:18:47.044Z,95037.28
2019-02-04T05:21:17.731Z,95044.08
2019-02-04T05:23:48.015Z,95040.94
2019-02-04T05:26:18.381Z,95038.77
2019-02-04T05:28:49.068Z,95033.63
2019-02-04T05:31:19.826Z,95045.31
2019-02-04T05:33:50.360Z,95051.31
2019-02-04T05:36:21.127Z,95053.09
2019-02-04T05:38:51.453Z,95065.33
2019-02-04T05:41:22.000Z,95063.17
2019-02-04T05:43:52.486Z,95057.11
2019-02-04T05:46:22.909Z,95060.89
2019-02-04T05:48:53.512Z,95064.27
2019-02-04T05:51:23.952Z,95070.25
2019-02-04T05:53:54.475Z,95067.36
2019-02-04T05:56:25.129Z,95066.77
2019-02-04T05:58:55.898Z,95051.64
2019-02-04T06:01:26.172Z,95068.03
2019-02-04T06:03:56.892Z,95080.14
2019-02-04T06:06:27.276Z,95079.04
2019-02-04T06:08:57.749Z,95078.05
2019-02-04T06:11:28.337Z,95082.41
2019-02-04T06:13:58.627Z,95081.91
2019-02-04T06:16:29.410Z,95083.28
2019-02-04T06:19:01.277Z,95088.09
2019-02-04T06:21:31.645Z,95089.01
2019-02-04T06:24:02.759Z,95094.63
2019-02-04T06:26:33.353Z,95094.05
2019-02-04T06:29:03.814Z,95108.95
2019-02-04T06:31:34.285Z,95104.30
2019-02-04T06:34:05.128Z,95101.69
2019-02-04T06:36:35.425Z,95101.02
2019-02-04T06:39:11.087Z,95099.16
2019-02-04T06:41:41.607Z,95107.11
2019-02-04T06:44:11.970Z,95110.78
2019-02-04T06:46:42.578Z,95103.37
2019-02-04T06:49:13.119Z,95116.47
2019-02-04T06:51:43.469Z,95121.73
2019-02-04T06:54:15.118Z,95125.56
2019-02-04T06:56:45.444Z,95126.56
2019-02-04T06:59:15.887Z,95127.77
2019-02-04T07:01:46.682Z,95125.50
2019-02-04T07:04:16.931Z,95133.80
2019-02-04T07:06:47.270Z,95129.06
2019-02-04T07:09:19.013Z,95140.92
2019-02-04T07:11:49.317Z,95146.81
2019-02-04T07:14:20.091Z,95150.63
2019-02-04T07:16:50.582Z,95147.00
2019-02-04T07:19:24.362Z,95150.66
2019-02-04T07:21:52.999Z,95158.26
2019-02-04T07:24:23.295Z,95163.91
2019-02-04T07:26:53.619Z,95172.99
2019-02-04T07:29:24.409Z,95165.51
2019-02-04T07:31:54.715Z,95169.61
2019-02-04T07:34:24.993Z,95167.02
2019-02-04T07:36:55.709Z,95173.88
2019-02-04T07:39:26.151Z,95182.38
2019-02-04T07:41:56.510Z,95184.28
2019-02-04T07:44:27.471Z,95205.55
2019-02-04T07:46:57.777Z,95189.38
2019-02-04T07:49:35.150Z,95190.34
2019-02-04T07:52:00.786Z,95195.45
2019-02-04T07:54:31.095Z,95194.08
2019-02-04T07:57:02.096Z,95200.22
2019-02-04T07:59:32.407Z,95196.78
2019-02-04T08:02:02.679Z,95198.52
2019-02-04T08:04:33.538Z,95201.78
2019-02-04T08:07:04.279Z,95204.75
2019-02-04T08:09:34.895Z,95199.79
2019-02-04T08:12:05.473Z,95200.83
2019-02-04T08:14:36.076Z,95203.84
2019-02-04T08:17:07.499Z,95205.65
2019-02-04T08:19:46.709Z,95203.52
2019-02-04T08:22:10.231Z,95209.38
2019-02-04T08:24:40.877Z,95216.97
2019-02-04T08:27:11.660Z,95221.87
2019-02-04T08:29:41.942Z,95219.12
2019-02-04T08:32:12.303Z,95222.14
2019-02-04T08:34:42.708Z,95213.77
2019-02-04T08:37:13.304Z,95210.31
2019-02-04T08:39:43.632Z,95212.45
2019-02-04T08:42:14.407Z,95218.52
2019-02-04T08:44:44.730Z,95208.92
2019-02-04T08:47:22.894Z,95202.48
2019-02-04T08:49:57.740Z,95208.59
2019-02-04T08:52:19.675Z,95208.95
2019-02-04T08:54:49.952Z,95216.89
2019-02-04T08:57:20.567Z,95221.53
2019-02-04T08:59:51.083Z,95221.31
2019-02-04T09:02:21.652Z,95212.75
2019-02-04T09:04:52.413Z,95223.27
2019-02-04T09:07:23.214Z,95225.95
2019-02-04T09:09:54.566Z,95226.34
2019-02-04T09:12:25.373Z,95224.39
2019-02-04T09:14:56.230Z,95220.75
2019-02-04T09:17:26.649Z,95217.95
2019-02-04T09:19:57.037Z,95214.30
2019-02-04T09:22:27.629Z,95213.00
2019-02-04T09:24:58.198Z,95210.53
2019-02-04T09:27:28.920Z,95207.40
2019-02-04T09:29:59.187Z,95211.58
2019-02-04T09:32:30.028Z,95196.48
2019-02-04T09:35:00.829Z,95198.67
2019-02-04T09:37:31.259Z,95198.48
2019-02-04T09:40:01.671Z,95198.25
2019-02-04T09:42:32.349Z,95197.27
2019-02-04T09:45:02.628Z,95204.83
2019-02-04T09:47:32.959Z,95203.23
2019-02-04T09:50:03.332Z,95207.29
2019-02-04T09:52:33.647Z,95206.99
2019-02-04T09:55:04.749Z,95215.27
2019-02-04T09:57:35.077Z,95208.00
2019-02-04T10:00:07.165Z,95197.55
2019-02-04T10:02:38.011Z,95191.84
2019-02-04T10:05:09.893Z,95191.44
2019-02-04T10:07:40.456Z,95178.89
2019-02-04T10:10:12.555Z,95181.44
2019-02-04T10:12:43.192Z,95184.94
2019-02-04T10:15:16.676Z,95182.31
2019-02-04T10:17:47.451Z,95177.06
2019-02-04T10:20:18.061Z,95173.23
2019-02-04T10:22:48.687Z,95164.66
2019-02-04T10:25:21.521Z,95165.02
2019-02-04T10:27:51.794Z,95153.80
2019-02-04T10:30:23.305Z,95160.69
2019-02-04T10:32:54.077Z,95158.36
2019-02-04T10:35:24.431Z,95157.05
2019-02-04T10:37:55.446Z,95160.56
2019-02-04T10:40:26.903Z,95157.72
2019-02-04T10:42:57.597Z,95156.20
2019-02-04T10:45:28.356Z,95159.88
2019-02-04T10:47:59.294Z,95146.70
2019-02-04T10:50:32.389Z,95153.30
2019-02-04T10:53:03.345Z,95150.41
2019-02-04T10:55:33.968Z,95147.00
2019-02-04T10:58:04.620Z,95144.91
2019-02-04T11:00:35.572Z,95149.34
2019-02-04T11:03:06.563Z,95146.44
2019-02-04T11:05:37.618Z,95154.37
2019-02-04T11:08:09.527Z,95148.27
2019-02-04T11:10:40.039Z,95135.33
2019-02-04T11:13:12.846Z,95142.23
2019-02-04T11:15:44.408Z,95141.64
2019-02-04T11:18:16.038Z,95142.31
2019-02-04T11:20:57.632Z,95132.59
2019-02-04T11:23:19.473Z,95144.30
2019-02-04T11:25:49.763Z,95145.20
2019-02-04T11:28:20.394Z,95149.30
2019-02-04T11:30:56.577Z,95142.52
2019-02-04T11:33:27.937Z,95148.70
2019-02-04T11:35:58.319Z,95151.79
2019-02-04T11:38:28.650Z,95146.31
2019-02-04T11:40:59.373Z,95145.03
2019-02-04T11:43:30.237Z,95144.77
2019-02-04T11:46:00.621Z,95144.22
2019-02-04T11:48:31.249Z,95145.89
2019-02-04T11:51:09.282Z,95145.87
2019-02-04T11:53:34.116Z,95140.14
2019-02-04T11:56:04.608Z,95139.38
2019-02-04T11:58:35.262Z,95136.78
2019-02-04T12:01:06.507Z,95139.73
2019-02-04T12:03:37.262Z,95133.19
2019-02-04T12:06:07.930Z,95131.30
2019-02-04T12:08:38.270Z,95128.69
2019-02-04T12:11:16.074Z,95127.09
2019-02-04T12:13:46.561Z,95122.84
2019-02-04T12:16:16.944Z,95121.70
2019-02-04T12:18:47.917Z,95117.19
2019-02-04T12:21:21.568Z,95109.63
2019-02-04T12:23:50.534Z,95116.70
2019-02-04T12:26:21.698Z,95110.63
2019-02-04T12:28:52.343Z,95108.37
2019-02-04T12:31:23.255Z,95101.58
2019-02-04T12:33:54.014Z,95097.63
2019-02-04T12:36:24.353Z,95097.91
2019-02-04T12:38:55.404Z,95096.53
2019-02-04T12:41:25.900Z,95096.81
2019-02-04T12:43:56.493Z,95093.34
2019-02-04T12:46:27.083Z,95094.33
2019-02-04T12:48:58.455Z,95099.14
2019-02-04T12:51:33.647Z,95108.97
2019-02-04T12:54:00.889Z,95103.06
2019-02-04T12:56:31.708Z,95103.56
2019-02-04T12:59:01.975Z,95104.61
2019-02-04T13:01:32.418Z,95098.52
2019-02-04T13:04:03.496Z,95098.13
2019-02-04T13:06:33.771Z,95096.26
2019-02-04T13:09:06.146Z,95102.80
2019-02-04T13:11:37.911Z,95101.66
2019-02-04T13:14:08.597Z,95113.15
2019-02-04T13:16:38.894Z,95106.27
2019-02-04T13:19:10.659Z,95113.94
2019-02-04T13:21:45.526Z,95111.01
2019-02-04T13:24:14.358Z,95108.53
2019-02-04T13:26:44.972Z,95109.27
2019-02-04T13:29:15.372Z,95117.45
2019-02-04T13:31:45.669Z,95113.48
2019-02-04T13:34:16.094Z,95113.14
2019-02-04T13:36:47.001Z,95112.09
2019-02-04T13:39:17.320Z,95107.22
2019-02-04T13:41:47.841Z,95105.78
2019-02-04T13:44:18.139Z,95108.99
2019-02-04T13:46:48.812Z,95108.82
2019-02-04T13:49:19.565Z,95109.46
2019-02-04T13:51:57.015Z,95110.94
2019-02-04T13:54:22.269Z,95112.83
2019-02-04T13:56:53.078Z,95119.27
2019-02-04T13:59:23.481Z,95124.95
2019-02-04T14:01:55.106Z,95127.81
2019-02-04T14:04:25.819Z,95130.67
2019-02-04T14:06:56.074Z,95123.56
2019-02-04T14:09:26.352Z,95123.64
2019-02-04T14:11:56.833Z,94968.03
2019-02-04T14:14:27.188Z,95111.74
2019-02-04T14:16:58.060Z,95113.16
2019-02-04T14:19:28.336Z,95106.23
2019-02-04T14:22:08.894Z,95111.59
2019-02-04T14:24:31.167Z,95110.04
2019-02-04T14:27:01.755Z,95118.27
2019-02-04T14:29:33.845Z,95120.59
2019-02-04T14:32:04.681Z,95121.30
2019-02-04T14:34:35.105Z,95119.95
2019-02-04T14:37:05.711Z,95127.27
2019-02-04T14:39:36.494Z,95118.25
2019-02-04T14:42:10.733Z,95114.15
2019-02-04T14:44:55.417Z,95107.75
2019-02-04T14:47:31.272Z,95119.56
2019-02-04T14:50:28.979Z,95117.75
2019-02-04T14:53:52.642Z,95121.51
2019-02-04T14:56:34.667Z,95116.50
2019-02-04T14:59:33.879Z,95116.84
2019-02-04T15:02:34.752Z,95114.99
2019-02-04T15:05:47.622Z,95117.38
2019-02-04T15:08:59.080Z,95113.13
2019-02-04T15:12:05.174Z,95115.72
2019-02-04T15:15:28.895Z,95112.75
2019-02-04T15:18:45.045Z,95119.08
2019-02-04T15:21:48.788Z,95120.36
2019-02-04T15:25:02.364Z,95122.70
2019-02-04T15:28:08.368Z,95124.00
2019-02-04T15:31:04.791Z,95122.80
2019-02-04T15:33:44.971Z,95122.73
2019-02-04T15:36:31.632Z,95133.45
2019-02-04T15:39:14.975Z,95137.07
2019-02-04T15:42:01.744Z,95147.73
2019-02-04T15:45:12.507Z,95146.55
2019-02-04T15:47:53.763Z,95147.75
2019-02-04T15:51:11.039Z,95145.36
2019-02-04T15:53:41.703Z,95150.03
2019-02-04T15:56:12.867Z,95152.52
2019-02-04T15:58:43.367Z,95167.50
2019-02-04T16:01:14.138Z,95159.77
2019-02-04T16:03:44.478Z,95170.83
2019-02-04T16:06:15.197Z,95162.61
2019-02-04T16:08:45.771Z,95165.95
2019-02-04T16:11:16.058Z,95165.66
2019-02-04T16:13:46.403Z,95173.02
2019-02-04T16:16:17.158Z,95190.31
2019-02-04T16:18:47.560Z,95171.54
2019-02-04T16:21:17.847Z,95170.04
2019-02-04T16:23:48.678Z,95170.77
2019-02-04T16:26:18.952Z,95174.17
2019-02-04T16:28:49.451Z,95185.97
2019-02-04T16:31:20.114Z,95182.70
2019-02-04T16:33:50.827Z,95192.87
2019-02-04T16:36:21.568Z,95200.14
2019-02-04T16:38:51.888Z,95204.23
2019-02-04T16:41:22.183Z,95207.57
2019-02-04T16:43:52.539Z,95203.11
2019-02-04T16:46:22.866Z,95215.24
2019-02-04T16:48:53.175Z,95213.86
2019-02-04T16:51:23.937Z,95215.88
2019-02-04T16:53:55.406Z,95223.25
2019-02-04T16:56:25.829Z,95219.56
2019-02-04T16:58:56.781Z,95229.34
2019-02-04T17:01:27.387Z,95221.23
2019-02-04T17:03:58.067Z,95229.23
2019-02-04T17:06:28.428Z,95230.28
2019-02-04T17:08:58.716Z,95233.31
2019-02-04T17:11:29.228Z,95233.23
2019-02-04T17:13:59.606Z,95231.55
2019-02-04T17:16:29.900Z,95232.47
2019-02-04T17:19:01.707Z,95247.62
2019-02-04T17:21:32.436Z,95246.57
2019-02-04T17:24:02.882Z,95245.77
2019-02-04T17:26:33.660Z,95247.28
2019-02-04T17:29:04.756Z,95249.01
2019-02-04T17:31:35.141Z,95249.68
2019-02-04T17:34:05.725Z,95249.05
2019-02-04T17:36:36.493Z,95261.38
2019-02-04T17:39:08.692Z,95268.73
2019-02-04T17:41:38.988Z,95265.67
2019-02-04T17:44:09.676Z,95263.14
2019-02-04T17:46:39.963Z,95266.63
2019-02-04T17:49:10.242Z,95262.03
2019-02-04T17:51:41.145Z,95264.27
2019-02-04T17:54:11.610Z,95268.23
2019-02-04T17:56:41.954Z,95264.31
2019-02-04T17:59:12.720Z,95269.85
2019-02-04T18:01:43.634Z,95273.17
2019-02-04T18:04:13.866Z,95274.47
2019-02-04T18:06:44.583Z,95274.63
2019-02-04T18:09:14.861Z,95276.70
2019-02-04T18:11:45.317Z,95274.05
2019-02-04T18:14:15.882Z,95279.31
2019-02-04T18:16:46.237Z,95279.10
2019-02-04T18:19:16.892Z,95279.83
2019-02-04T18:21:47.584Z,95281.41
2019-02-04T18:24:18.256Z,95286.94
2019-02-04T18:26:48.971Z,95286.56
2019-02-04T18:29:19.679Z,95290.03
2019-02-04T18:31:50.181Z,95292.73
2019-02-04T18:34:20.555Z,95287.08
2019-02-04T18:36:50.970Z,95288.89
2019-02-04T18:39:21.269Z,95296.78
2019-02-04T18:41:51.653Z,95297.66
2019-02-04T18:44:21.948Z,95296.64
2019-02-04T18:46:53.108Z,95291.58
2019-02-04T18:49:24.030Z,95291.99
2019-02-04T18:51:54.357Z,95298.45
2019-02-04T18:54:25.054Z,95303.14
2019-02-04T18:56:55.762Z,95302.58
2019-02-04T18:59:26.278Z,95307.93
2019-02-04T19:01:57.136Z,95303.79
2019-02-04T19:04:28.075Z,95302.34
2019-02-04T19:06:58.339Z,95295.50
2019-02-04T19:09:28.799Z,95291.95
2019-02-04T19:11:59.175Z,95293.05
2019-02-04T19:14:29.732Z,95298.09
2019-02-04T19:17:00.231Z,95292.73
2019-02-04T19:19:30.517Z,95295.80
2019-02-04T19:22:00.856Z,95299.64
2019-02-04T19:24:31.523Z,95294.98
2019-02-04T19:27:01.791Z,95288.41
2019-02-04T19:29:32.391Z,95284.57
2019-02-04T19:32:03.078Z,95294.72
2019-02-04T19:34:33.643Z,95294.58
2019-02-04T19:37:04.237Z,95299.59
2019-02-04T19:39:34.900Z,95295.66
2019-02-04T19:42:05.964Z,95292.45
2019-02-04T19:44:36.422Z,95295.55
2019-02-04T19:47:07.512Z,95303.72
2019-02-04T19:49:37.787Z,95305.62
2019-02-04T19:52:08.708Z,95309.38
2019-02-04T19:54:39.167Z,95304.66
2019-02-04T19:57:09.438Z,95312.85
2019-02-04T19:59:40.074Z,95317.84
2019-02-04T20:02:10.753Z,95313.15
2019-02-04T20:04:42.029Z,95312.34
2019-02-04T20:07:12.645Z,95315.78
2019-02-04T20:09:43.731Z,95307.17
2019-02-04T20:12:14.024Z,95315.00
2019-02-04T20:14:44.488Z,95315.03
2019-02-04T20:17:14.803Z,95318.37
2019-02-04T20:19:45.427Z,95323.09
2019-02-04T20:22:16.000Z,95324.69
2019-02-04T20:24:46.267Z,95324.24
2019-02-04T20:27:16.941Z,95321.19
2019-02-04T20:29:47.527Z,95318.26
2019-02-04T20:32:17.896Z,95315.20
2019-02-04T20:34:48.309Z,95318.38
2019-02-04T20:37:19.467Z,95319.58
2019-02-04T20:39:49.765Z,95321.52
2019-02-04T20:42:21.080Z,95321.22
2019-02-04T20:44:51.446Z,95320.19
2019-02-04T20:47:21.763Z,95324.16
2019-02-04T20:49:52.599Z,95321.00
2019-02-04T20:52:22.922Z,95321.70
2019-02-04T20:54:53.394Z,95315.20
2019-02-04T20:57:24.100Z,95316.49
2019-02-04T20:59:54.510Z,95310.77
2019-02-04T21:02:24.842Z,95311.75
2019-02-04T21:04:55.848Z,95316.83
2019-02-04T21:07:26.159Z,95316.84
2019-02-04T21:09:56.508Z,95312.23
2019-02-04T21:12:27.135Z,95311.55
2019-02-04T21:14:57.528Z,95311.25
2019-02-04T21:17:27.813Z,95308.45
2019-02-04T21:19:58.446Z,95309.28
2019-02-04T21:22:28.742Z,95318.71
2019-02-04T21:24:59.507Z,95303.23
2019-02-04T21:27:29.783Z,95310.29
2019-02-04T21:30:00.340Z,95309.30
2019-02-04T21:32:32.592Z,95303.81
2019-02-04T21:35:03.248Z,95319.50
2019-02-04T21:37:33.522Z,95311.30
2019-02-04T21:40:05.246Z,95310.17
2019-02-04T21:42:36.573Z,95319.50
2019-02-04T21:45:08.622Z,95312.41
2019-02-04T21:47:39.245Z,95318.09
2019-02-04T21:50:12.999Z,95313.76
2019-02-04T21:52:43.392Z,95321.81
2019-02-04T21:55:14.265Z,95318.95
2019-02-04T21:57:45.357Z,95324.84
2019-02-04T22:00:21.226Z,95324.34
2019-02-04T22:02:51.601Z,95320.45
2019-02-04T22:05:23.647Z,95318.97
2019-02-04T22:07:53.932Z,95316.67
2019-02-04T22:10:25.551Z,95321.86
2019-02-04T22:12:55.938Z,95316.84
2019-02-04T22:15:26.358Z,95323.84
2019-02-04T22:17:56.782Z,95326.20
2019-02-04T22:20:27.519Z,95331.41
2019-02-04T22:22:57.843Z,95331.52
2019-02-04T22:25:28.298Z,95334.00
2019-02-04T22:27:58.608Z,95336.70
2019-02-04T22:30:30.199Z,95338.98
2019-02-04T22:33:00.740Z,95332.51
2019-02-04T22:35:31.028Z,95338.20
2019-02-04T22:38:01.827Z,95339.77
2019-02-04T22:40:32.165Z,95364.20
2019-02-04T22:43:02.491Z,95339.67
2019-02-04T22:45:32.777Z,95337.25
2019-02-04T22:48:03.295Z,95338.44
2019-02-04T22:50:33.596Z,95337.40
2019-02-04T22:53:04.396Z,95334.53
2019-02-04T22:55:34.696Z,95333.38
2019-02-04T22:58:05.427Z,95332.69
2019-02-04T23:01:03.727Z,95336.05
2019-02-04T23:03:34.510Z,95338.92
2019-02-04T23:06:04.911Z,95342.98
2019-02-04T23:08:35.691Z,95337.31
2019-02-04T23:11:06.071Z,95338.42
2019-02-04T23:13:36.764Z,95333.57
2019-02-04T23:16:07.151Z,95333.89
2019-02-04T23:18:37.466Z,95328.23
2019-02-04T23:21:07.776Z,95329.76
2019-02-04T23:23:38.106Z,95331.33
2019-02-04T23:26:09.018Z,95335.83
2019-02-04T23:28:39.339Z,95326.36
2019-02-04T23:31:09.981Z,95322.11
2019-02-04T23:33:40.397Z,95317.82
2019-02-04T23:36:10.903Z,95315.98
2019-02-04T23:38:41.592Z,95314.39
2019-02-04T23:41:11.842Z,95308.23
2019-02-04T23:43:42.115Z,95307.19
2019-02-04T23:46:12.925Z,95303.86
2019-02-04T23:48:43.210Z,95307.71
2019-02-04T23:51:13.525Z,95303.66
2019-02-04T23:53:45.566Z,95308.69
2019-02-04T23:56:16.112Z,95313.77
2019-02-04T23:58:46.407Z,95308.69
